sensor_id;sensor_type;location;lat;lon;timestamp;P1;durP1;ratioP1;P2;durP2;ratioP2
18102;SDS011;9178;51.120;6.192;2022-12-11T00:01:09;85.30;;;26.87;;
18102;SDS011;9178;51.120;6.192;2022-12-11T00:03:36;91.13;;;27.57;;
18102;SDS011;9178;51.120;6.192;2022-12-11T00:06:05;97.10;;;27.80;;
18102;SDS011;9178;51.120;6.192;2022-12-11T00:08:33;86.40;;;27.20;;
18102;SDS011;9178;51.120;6.192;2022-12-11T00:11:00;89.53;;;26.50;;
18102;SDS011;9178;51.120;6.192;2022-12-11T00:13:27;81.23;;;26.20;;
18102;SDS011;9178;51.120;6.192;2022-12-11T00:15:54;71.30;;;24.70;;
18102;SDS011;9178;51.120;6.192;2022-12-11T00:18:23;72.47;;;25.07;;
18102;SDS011;9178;51.120;6.192;2022-12-11T00:20:50;64.37;;;23.90;;
18102;SDS011;9178;51.120;6.192;2022-12-11T00:23:18;69.70;;;22.80;;
18102;SDS011;9178;51.120;6.192;2022-12-11T00:25:46;68.37;;;23.33;;
18102;SDS011;9178;51.120;6.192;2022-12-11T00:28:14;58.93;;;22.47;;
18102;SDS011;9178;51.120;6.192;2022-12-11T00:30:42;59.23;;;21.27;;
18102;SDS011;9178;51.120;6.192;2022-12-11T00:33:09;55.00;;;21.40;;
18102;SDS011;9178;51.120;6.192;2022-12-11T00:35:36;57.07;;;22.70;;
18102;SDS011;9178;51.120;6.192;2022-12-11T00:38:03;53.53;;;20.70;;
18102;SDS011;9178;51.120;6.192;2022-12-11T00:40:33;48.07;;;20.87;;
18102;SDS011;9178;51.120;6.192;2022-12-11T00:43:00;50.57;;;21.07;;
18102;SDS011;9178;51.120;6.192;2022-12-11T00:45:27;49.73;;;20.33;;
18102;SDS011;9178;51.120;6.192;2022-12-11T00:47:54;53.37;;;20.70;;
18102;SDS011;9178;51.120;6.192;2022-12-11T00:50:21;48.73;;;20.50;;
18102;SDS011;9178;51.120;6.192;2022-12-11T00:52:48;51.03;;;21.07;;
18102;SDS011;9178;51.120;6.192;2022-12-11T00:55:15;50.70;;;20.87;;
18102;SDS011;9178;51.120;6.192;2022-12-11T00:57:43;45.93;;;18.83;;
18102;SDS011;9178;51.120;6.192;2022-12-11T01:00:11;47.17;;;19.10;;
18102;SDS011;9178;51.120;6.192;2022-12-11T01:02:39;49.60;;;20.20;;
18102;SDS011;9178;51.120;6.192;2022-12-11T01:05:07;45.33;;;19.20;;
18102;SDS011;9178;51.120;6.192;2022-12-11T01:07:34;47.63;;;19.10;;
18102;SDS011;9178;51.120;6.192;2022-12-11T01:10:02;47.57;;;19.73;;
18102;SDS011;9178;51.120;6.192;2022-12-11T01:12:51;44.83;;;19.10;;
18102;SDS011;9178;51.120;6.192;2022-12-11T01:15:19;40.70;;;18.40;;
18102;SDS011;9178;51.120;6.192;2022-12-11T01:17:48;45.73;;;20.13;;
18102;SDS011;9178;51.120;6.192;2022-12-11T01:20:15;45.10;;;20.27;;
18102;SDS011;9178;51.120;6.192;2022-12-11T01:22:42;51.43;;;19.70;;
18102;SDS011;9178;51.120;6.192;2022-12-11T01:25:09;45.50;;;18.37;;
18102;SDS011;9178;51.120;6.192;2022-12-11T01:27:36;42.30;;;18.57;;
18102;SDS011;9178;51.120;6.192;2022-12-11T01:30:06;39.43;;;18.50;;
18102;SDS011;9178;51.120;6.192;2022-12-11T01:32:34;40.40;;;17.97;;
18102;SDS011;9178;51.120;6.192;2022-12-11T01:35:01;42.40;;;18.60;;
18102;SDS011;9178;51.120;6.192;2022-12-11T01:37:29;46.03;;;19.03;;
18102;SDS011;9178;51.120;6.192;2022-12-11T01:39:56;43.73;;;18.33;;
18102;SDS011;9178;51.120;6.192;2022-12-11T01:42:22;41.77;;;18.13;;
18102;SDS011;9178;51.120;6.192;2022-12-11T01:47:59;38.37;;;16.40;;
18102;SDS011;9178;51.120;6.192;2022-12-11T01:50:30;38.03;;;15.70;;
18102;SDS011;9178;51.120;6.192;2022-12-11T01:53:01;37.33;;;16.73;;
18102;SDS011;9178;51.120;6.192;2022-12-11T01:55:32;37.63;;;16.67;;
18102;SDS011;9178;51.120;6.192;2022-12-11T01:58:00;33.73;;;16.17;;
18102;SDS011;9178;51.120;6.192;2022-12-11T02:00:29;37.53;;;16.50;;
18102;SDS011;9178;51.120;6.192;2022-12-11T02:02:56;38.57;;;17.17;;
18102;SDS011;9178;51.120;6.192;2022-12-11T02:05:23;41.00;;;18.00;;
18102;SDS011;9178;51.120;6.192;2022-12-11T02:07:50;38.87;;;16.63;;
18102;SDS011;9178;51.120;6.192;2022-12-11T02:10:20;41.43;;;17.50;;
18102;SDS011;9178;51.120;6.192;2022-12-11T02:12:53;42.40;;;17.67;;
18102;SDS011;9178;51.120;6.192;2022-12-11T02:15:25;41.60;;;17.97;;
18102;SDS011;9178;51.120;6.192;2022-12-11T02:18:03;46.00;;;19.50;;
18102;SDS011;9178;51.120;6.192;2022-12-11T02:20:36;45.60;;;19.37;;
18102;SDS011;9178;51.120;6.192;2022-12-11T02:23:18;44.60;;;18.77;;
18102;SDS011;9178;51.120;6.192;2022-12-11T02:25:56;41.20;;;18.27;;
18102;SDS011;9178;51.120;6.192;2022-12-11T02:28:33;40.70;;;18.63;;
18102;SDS011;9178;51.120;6.192;2022-12-11T02:31:04;43.03;;;17.90;;
18102;SDS011;9178;51.120;6.192;2022-12-11T02:33:38;47.30;;;19.83;;
18102;SDS011;9178;51.120;6.192;2022-12-11T02:36:09;43.80;;;18.93;;
18102;SDS011;9178;51.120;6.192;2022-12-11T02:38:38;42.43;;;18.30;;
18102;SDS011;9178;51.120;6.192;2022-12-11T02:41:08;45.60;;;18.70;;
18102;SDS011;9178;51.120;6.192;2022-12-11T02:43:38;44.07;;;18.53;;
18102;SDS011;9178;51.120;6.192;2022-12-11T02:46:09;44.90;;;18.17;;
18102;SDS011;9178;51.120;6.192;2022-12-11T02:48:39;46.27;;;18.87;;
18102;SDS011;9178;51.120;6.192;2022-12-11T02:51:07;43.13;;;18.47;;
18102;SDS011;9178;51.120;6.192;2022-12-11T02:53:36;45.13;;;19.57;;
18102;SDS011;9178;51.120;6.192;2022-12-11T02:56:07;44.20;;;18.90;;
18102;SDS011;9178;51.120;6.192;2022-12-11T02:58:41;50.23;;;19.10;;
18102;SDS011;9178;51.120;6.192;2022-12-11T03:01:11;41.43;;;17.83;;
18102;SDS011;9178;51.120;6.192;2022-12-11T03:03:38;46.20;;;18.43;;
18102;SDS011;9178;51.120;6.192;2022-12-11T03:06:05;38.70;;;16.87;;
18102;SDS011;9178;51.120;6.192;2022-12-11T03:08:33;41.57;;;17.37;;
18102;SDS011;9178;51.120;6.192;2022-12-11T03:11:00;44.83;;;17.37;;
18102;SDS011;9178;51.120;6.192;2022-12-11T03:13:26;40.93;;;17.80;;
18102;SDS011;9178;51.120;6.192;2022-12-11T03:15:58;41.57;;;17.90;;
18102;SDS011;9178;51.120;6.192;2022-12-11T03:18:33;40.40;;;17.40;;
18102;SDS011;9178;51.120;6.192;2022-12-11T03:21:05;40.20;;;17.27;;
18102;SDS011;9178;51.120;6.192;2022-12-11T03:23:38;39.57;;;16.50;;
18102;SDS011;9178;51.120;6.192;2022-12-11T03:26:13;41.90;;;16.93;;
18102;SDS011;9178;51.120;6.192;2022-12-11T03:28:44;41.07;;;17.57;;
18102;SDS011;9178;51.120;6.192;2022-12-11T03:31:17;42.20;;;16.90;;
18102;SDS011;9178;51.120;6.192;2022-12-11T03:33:49;39.53;;;17.03;;
18102;SDS011;9178;51.120;6.192;2022-12-11T03:36:23;39.80;;;16.77;;
18102;SDS011;9178;51.120;6.192;2022-12-11T03:38:53;47.20;;;16.93;;
18102;SDS011;9178;51.120;6.192;2022-12-11T03:41:23;38.83;;;16.70;;
18102;SDS011;9178;51.120;6.192;2022-12-11T03:43:53;44.67;;;16.70;;
18102;SDS011;9178;51.120;6.192;2022-12-11T03:46:24;38.67;;;16.77;;
18102;SDS011;9178;51.120;6.192;2022-12-11T03:48:54;38.10;;;16.60;;
18102;SDS011;9178;51.120;6.192;2022-12-11T03:51:24;37.27;;;16.50;;
18102;SDS011;9178;51.120;6.192;2022-12-11T03:53:51;39.50;;;15.93;;
18102;SDS011;9178;51.120;6.192;2022-12-11T03:56:20;41.63;;;17.60;;
18102;SDS011;9178;51.120;6.192;2022-12-11T03:58:49;39.77;;;16.30;;
18102;SDS011;9178;51.120;6.192;2022-12-11T04:01:16;34.97;;;16.13;;
18102;SDS011;9178;51.120;6.192;2022-12-11T04:03:44;32.17;;;15.17;;
18102;SDS011;9178;51.120;6.192;2022-12-11T04:06:11;32.40;;;15.03;;
18102;SDS011;9178;51.120;6.192;2022-12-11T04:08:38;34.50;;;15.10;;
18102;SDS011;9178;51.120;6.192;2022-12-11T04:11:05;36.13;;;15.27;;
18102;SDS011;9178;51.120;6.192;2022-12-11T04:13:49;32.10;;;15.23;;
18102;SDS011;9178;51.120;6.192;2022-12-11T04:16:36;34.77;;;14.60;;
18102;SDS011;9178;51.120;6.192;2022-12-11T04:19:03;30.40;;;13.77;;
18102;SDS011;9178;51.120;6.192;2022-12-11T04:21:48;38.83;;;15.17;;
18102;SDS011;9178;51.120;6.192;2022-12-11T04:24:32;29.67;;;15.03;;
18102;SDS011;9178;51.120;6.192;2022-12-11T04:26:59;27.73;;;13.83;;
18102;SDS011;9178;51.120;6.192;2022-12-11T04:29:26;29.60;;;13.93;;
18102;SDS011;9178;51.120;6.192;2022-12-11T04:31:53;31.30;;;13.80;;
18102;SDS011;9178;51.120;6.192;2022-12-11T04:34:21;32.30;;;15.10;;
18102;SDS011;9178;51.120;6.192;2022-12-11T04:36:48;33.77;;;14.33;;
18102;SDS011;9178;51.120;6.192;2022-12-11T04:39:15;33.53;;;15.00;;
18102;SDS011;9178;51.120;6.192;2022-12-11T04:41:42;31.53;;;13.97;;
18102;SDS011;9178;51.120;6.192;2022-12-11T04:44:09;34.40;;;14.93;;
18102;SDS011;9178;51.120;6.192;2022-12-11T04:46:36;30.93;;;15.23;;
18102;SDS011;9178;51.120;6.192;2022-12-11T04:49:02;31.90;;;13.97;;
18102;SDS011;9178;51.120;6.192;2022-12-11T04:51:30;32.37;;;14.80;;
18102;SDS011;9178;51.120;6.192;2022-12-11T04:53:57;30.73;;;14.80;;
18102;SDS011;9178;51.120;6.192;2022-12-11T04:56:24;30.53;;;14.40;;
18102;SDS011;9178;51.120;6.192;2022-12-11T04:58:51;30.17;;;14.23;;
18102;SDS011;9178;51.120;6.192;2022-12-11T05:01:19;27.43;;;13.40;;
18102;SDS011;9178;51.120;6.192;2022-12-11T05:03:46;30.10;;;13.97;;
18102;SDS011;9178;51.120;6.192;2022-12-11T05:06:13;28.17;;;13.50;;
18102;SDS011;9178;51.120;6.192;2022-12-11T05:08:45;29.10;;;13.30;;
18102;SDS011;9178;51.120;6.192;2022-12-11T05:11:12;26.73;;;12.43;;
18102;SDS011;9178;51.120;6.192;2022-12-11T05:13:40;25.87;;;11.47;;
18102;SDS011;9178;51.120;6.192;2022-12-11T05:16:08;29.07;;;13.30;;
18102;SDS011;9178;51.120;6.192;2022-12-11T05:18:36;32.73;;;13.50;;
18102;SDS011;9178;51.120;6.192;2022-12-11T05:21:04;25.37;;;11.83;;
18102;SDS011;9178;51.120;6.192;2022-12-11T05:23:32;23.67;;;11.00;;
18102;SDS011;9178;51.120;6.192;2022-12-11T05:26:01;23.93;;;11.50;;
18102;SDS011;9178;51.120;6.192;2022-12-11T05:28:30;24.20;;;11.73;;
18102;SDS011;9178;51.120;6.192;2022-12-11T05:30:58;22.63;;;11.33;;
18102;SDS011;9178;51.120;6.192;2022-12-11T05:33:27;28.10;;;11.83;;
18102;SDS011;9178;51.120;6.192;2022-12-11T05:35:54;22.43;;;10.83;;
18102;SDS011;9178;51.120;6.192;2022-12-11T05:38:21;21.37;;;10.10;;
18102;SDS011;9178;51.120;6.192;2022-12-11T05:40:54;24.10;;;10.60;;
18102;SDS011;9178;51.120;6.192;2022-12-11T05:43:23;24.67;;;10.83;;
18102;SDS011;9178;51.120;6.192;2022-12-11T05:45:50;22.37;;;10.70;;
18102;SDS011;9178;51.120;6.192;2022-12-11T05:48:17;17.77;;;9.97;;
18102;SDS011;9178;51.120;6.192;2022-12-11T05:50:43;20.90;;;10.07;;
18102;SDS011;9178;51.120;6.192;2022-12-11T05:53:10;22.13;;;10.60;;
18102;SDS011;9178;51.120;6.192;2022-12-11T05:55:37;22.30;;;10.40;;
18102;SDS011;9178;51.120;6.192;2022-12-11T05:58:04;19.23;;;9.20;;
18102;SDS011;9178;51.120;6.192;2022-12-11T06:00:32;17.77;;;10.27;;
18102;SDS011;9178;51.120;6.192;2022-12-11T06:02:59;18.47;;;10.03;;
18102;SDS011;9178;51.120;6.192;2022-12-11T06:05:26;20.97;;;10.07;;
18102;SDS011;9178;51.120;6.192;2022-12-11T06:07:52;22.63;;;9.73;;
18102;SDS011;9178;51.120;6.192;2022-12-11T06:10:19;17.90;;;9.90;;
18102;SDS011;9178;51.120;6.192;2022-12-11T06:12:46;19.53;;;10.20;;
18102;SDS011;9178;51.120;6.192;2022-12-11T06:15:13;19.27;;;9.57;;
18102;SDS011;9178;51.120;6.192;2022-12-11T06:17:41;18.70;;;9.67;;
18102;SDS011;9178;51.120;6.192;2022-12-11T06:20:08;16.03;;;9.80;;
18102;SDS011;9178;51.120;6.192;2022-12-11T06:22:35;19.33;;;10.63;;
18102;SDS011;9178;51.120;6.192;2022-12-11T06:25:01;18.70;;;9.87;;
18102;SDS011;9178;51.120;6.192;2022-12-11T06:27:29;16.70;;;8.67;;
18102;SDS011;9178;51.120;6.192;2022-12-11T06:29:56;22.40;;;9.50;;
18102;SDS011;9178;51.120;6.192;2022-12-11T06:32:22;18.10;;;9.13;;
18102;SDS011;9178;51.120;6.192;2022-12-11T06:34:51;18.37;;;9.47;;
18102;SDS011;9178;51.120;6.192;2022-12-11T06:37:17;17.00;;;9.73;;
18102;SDS011;9178;51.120;6.192;2022-12-11T06:39:44;16.77;;;9.33;;
18102;SDS011;9178;51.120;6.192;2022-12-11T06:42:11;15.60;;;9.47;;
18102;SDS011;9178;51.120;6.192;2022-12-11T06:44:38;18.73;;;9.67;;
18102;SDS011;9178;51.120;6.192;2022-12-11T06:47:05;17.30;;;9.23;;
18102;SDS011;9178;51.120;6.192;2022-12-11T06:49:31;14.23;;;8.60;;
18102;SDS011;9178;51.120;6.192;2022-12-11T06:52:00;16.97;;;9.60;;
18102;SDS011;9178;51.120;6.192;2022-12-11T06:54:26;16.73;;;8.80;;
18102;SDS011;9178;51.120;6.192;2022-12-11T06:56:53;15.70;;;8.80;;
18102;SDS011;9178;51.120;6.192;2022-12-11T06:59:20;18.37;;;9.20;;
18102;SDS011;9178;51.120;6.192;2022-12-11T07:01:47;15.90;;;8.67;;
18102;SDS011;9178;51.120;6.192;2022-12-11T07:04:14;18.90;;;8.87;;
18102;SDS011;9178;51.120;6.192;2022-12-11T07:06:40;17.80;;;9.50;;
18102;SDS011;9178;51.120;6.192;2022-12-11T07:09:08;19.53;;;9.90;;
18102;SDS011;9178;51.120;6.192;2022-12-11T07:11:35;17.60;;;9.00;;
18102;SDS011;9178;51.120;6.192;2022-12-11T07:14:02;14.33;;;9.00;;
18102;SDS011;9178;51.120;6.192;2022-12-11T07:16:29;16.03;;;9.90;;
18102;SDS011;9178;51.120;6.192;2022-12-11T07:18:56;17.83;;;9.97;;
18102;SDS011;9178;51.120;6.192;2022-12-11T07:21:22;19.40;;;10.13;;
18102;SDS011;9178;51.120;6.192;2022-12-11T07:23:49;18.90;;;10.07;;
18102;SDS011;9178;51.120;6.192;2022-12-11T07:26:19;16.23;;;10.27;;
18102;SDS011;9178;51.120;6.192;2022-12-11T07:28:47;17.30;;;9.67;;
18102;SDS011;9178;51.120;6.192;2022-12-11T07:31:16;17.10;;;9.87;;
18102;SDS011;9178;51.120;6.192;2022-12-11T07:33:45;17.70;;;10.10;;
18102;SDS011;9178;51.120;6.192;2022-12-11T07:36:13;20.27;;;10.93;;
18102;SDS011;9178;51.120;6.192;2022-12-11T07:38:40;17.13;;;9.60;;
18102;SDS011;9178;51.120;6.192;2022-12-11T07:41:08;15.23;;;9.47;;
18102;SDS011;9178;51.120;6.192;2022-12-11T07:43:38;15.47;;;9.30;;
18102;SDS011;9178;51.120;6.192;2022-12-11T07:46:06;16.27;;;9.90;;
18102;SDS011;9178;51.120;6.192;2022-12-11T07:48:34;21.33;;;10.13;;
18102;SDS011;9178;51.120;6.192;2022-12-11T07:51:08;19.10;;;9.73;;
18102;SDS011;9178;51.120;6.192;2022-12-11T07:53:36;17.03;;;9.87;;
18102;SDS011;9178;51.120;6.192;2022-12-11T07:56:03;13.43;;;8.00;;
18102;SDS011;9178;51.120;6.192;2022-12-11T07:58:30;14.57;;;8.30;;
18102;SDS011;9178;51.120;6.192;2022-12-11T08:00:58;12.77;;;8.33;;
18102;SDS011;9178;51.120;6.192;2022-12-11T08:03:25;12.97;;;8.03;;
18102;SDS011;9178;51.120;6.192;2022-12-11T08:05:51;13.63;;;7.03;;
18102;SDS011;9178;51.120;6.192;2022-12-11T08:08:18;13.60;;;8.00;;
18102;SDS011;9178;51.120;6.192;2022-12-11T08:10:45;14.27;;;7.47;;
18102;SDS011;9178;51.120;6.192;2022-12-11T08:13:12;13.77;;;8.33;;
18102;SDS011;9178;51.120;6.192;2022-12-11T08:15:39;14.60;;;7.60;;
18102;SDS011;9178;51.120;6.192;2022-12-11T08:18:07;13.30;;;6.47;;
18102;SDS011;9178;51.120;6.192;2022-12-11T08:20:36;13.33;;;7.60;;
18102;SDS011;9178;51.120;6.192;2022-12-11T08:23:03;11.90;;;6.70;;
18102;SDS011;9178;51.120;6.192;2022-12-11T08:25:30;13.13;;;7.30;;
18102;SDS011;9178;51.120;6.192;2022-12-11T08:27:57;14.13;;;8.10;;
18102;SDS011;9178;51.120;6.192;2022-12-11T08:30:24;10.97;;;7.30;;
18102;SDS011;9178;51.120;6.192;2022-12-11T08:32:50;12.10;;;6.90;;
18102;SDS011;9178;51.120;6.192;2022-12-11T08:35:18;11.77;;;6.87;;
18102;SDS011;9178;51.120;6.192;2022-12-11T08:37:45;10.97;;;6.70;;
18102;SDS011;9178;51.120;6.192;2022-12-11T08:40:12;12.90;;;7.10;;
18102;SDS011;9178;51.120;6.192;2022-12-11T08:42:39;12.83;;;7.20;;
18102;SDS011;9178;51.120;6.192;2022-12-11T08:45:06;11.63;;;6.70;;
18102;SDS011;9178;51.120;6.192;2022-12-11T08:47:33;11.63;;;7.33;;
18102;SDS011;9178;51.120;6.192;2022-12-11T08:50:00;12.33;;;7.63;;
18102;SDS011;9178;51.120;6.192;2022-12-11T08:52:29;10.90;;;7.30;;
18102;SDS011;9178;51.120;6.192;2022-12-11T08:54:56;11.30;;;6.87;;
18102;SDS011;9178;51.120;6.192;2022-12-11T08:57:23;12.13;;;7.40;;
18102;SDS011;9178;51.120;6.192;2022-12-11T08:59:49;12.17;;;6.60;;
18102;SDS011;9178;51.120;6.192;2022-12-11T09:02:16;11.57;;;6.77;;
18102;SDS011;9178;51.120;6.192;2022-12-11T09:04:43;12.53;;;7.47;;
18102;SDS011;9178;51.120;6.192;2022-12-11T09:07:10;12.53;;;7.77;;
18102;SDS011;9178;51.120;6.192;2022-12-11T09:09:38;13.90;;;8.20;;
18102;SDS011;9178;51.120;6.192;2022-12-11T09:12:05;10.33;;;6.50;;
18102;SDS011;9178;51.120;6.192;2022-12-11T09:14:32;10.93;;;7.57;;
18102;SDS011;9178;51.120;6.192;2022-12-11T09:16:59;10.53;;;6.63;;
18102;SDS011;9178;51.120;6.192;2022-12-11T09:19:26;10.77;;;7.10;;
18102;SDS011;9178;51.120;6.192;2022-12-11T09:21:53;11.90;;;6.80;;
18102;SDS011;9178;51.120;6.192;2022-12-11T09:24:19;11.70;;;7.43;;
18102;SDS011;9178;51.120;6.192;2022-12-11T09:26:47;13.13;;;6.90;;
18102;SDS011;9178;51.120;6.192;2022-12-11T09:29:14;10.60;;;7.07;;
18102;SDS011;9178;51.120;6.192;2022-12-11T09:31:41;11.70;;;7.57;;
18102;SDS011;9178;51.120;6.192;2022-12-11T09:34:10;12.17;;;7.47;;
18102;SDS011;9178;51.120;6.192;2022-12-11T09:36:38;11.57;;;7.73;;
18102;SDS011;9178;51.120;6.192;2022-12-11T09:39:06;12.60;;;7.50;;
18102;SDS011;9178;51.120;6.192;2022-12-11T09:41:35;14.17;;;7.73;;
18102;SDS011;9178;51.120;6.192;2022-12-11T09:44:14;14.70;;;8.00;;
18102;SDS011;9178;51.120;6.192;2022-12-11T09:46:46;14.87;;;7.90;;
18102;SDS011;9178;51.120;6.192;2022-12-11T09:49:21;11.90;;;7.63;;
18102;SDS011;9178;51.120;6.192;2022-12-11T09:51:54;13.10;;;8.47;;
18102;SDS011;9178;51.120;6.192;2022-12-11T09:54:27;11.13;;;7.53;;
18102;SDS011;9178;51.120;6.192;2022-12-11T09:56:56;14.20;;;7.80;;
18102;SDS011;9178;51.120;6.192;2022-12-11T09:59:31;12.77;;;7.73;;
18102;SDS011;9178;51.120;6.192;2022-12-11T10:02:10;11.70;;;7.60;;
18102;SDS011;9178;51.120;6.192;2022-12-11T10:04:49;14.70;;;7.70;;
18102;SDS011;9178;51.120;6.192;2022-12-11T10:07:29;12.07;;;7.50;;
18102;SDS011;9178;51.120;6.192;2022-12-11T10:10:05;13.50;;;7.70;;
18102;SDS011;9178;51.120;6.192;2022-12-11T10:12:41;11.93;;;7.83;;
18102;SDS011;9178;51.120;6.192;2022-12-11T10:15:19;15.43;;;7.90;;
18102;SDS011;9178;51.120;6.192;2022-12-11T10:17:55;12.30;;;7.73;;
18102;SDS011;9178;51.120;6.192;2022-12-11T10:20:24;11.87;;;7.40;;
18102;SDS011;9178;51.120;6.192;2022-12-11T10:22:55;12.53;;;7.67;;
18102;SDS011;9178;51.120;6.192;2022-12-11T10:25:24;12.60;;;7.40;;
18102;SDS011;9178;51.120;6.192;2022-12-11T10:27:52;11.07;;;7.27;;
18102;SDS011;9178;51.120;6.192;2022-12-11T10:30:22;13.87;;;7.07;;
18102;SDS011;9178;51.120;6.192;2022-12-11T10:32:51;14.33;;;7.73;;
18102;SDS011;9178;51.120;6.192;2022-12-11T10:35:25;14.40;;;7.93;;
18102;SDS011;9178;51.120;6.192;2022-12-11T10:38:01;11.67;;;7.43;;
18102;SDS011;9178;51.120;6.192;2022-12-11T10:40:37;14.77;;;7.27;;
18102;SDS011;9178;51.120;6.192;2022-12-11T10:43:07;15.70;;;8.20;;
18102;SDS011;9178;51.120;6.192;2022-12-11T10:45:36;14.83;;;8.43;;
18102;SDS011;9178;51.120;6.192;2022-12-11T10:48:03;15.23;;;9.13;;
18102;SDS011;9178;51.120;6.192;2022-12-11T10:50:31;15.47;;;9.00;;
18102;SDS011;9178;51.120;6.192;2022-12-11T10:52:58;15.70;;;8.80;;
18102;SDS011;9178;51.120;6.192;2022-12-11T10:55:26;14.63;;;8.47;;
18102;SDS011;9178;51.120;6.192;2022-12-11T10:57:56;13.03;;;7.67;;
18102;SDS011;9178;51.120;6.192;2022-12-11T11:00:28;12.93;;;7.97;;
18102;SDS011;9178;51.120;6.192;2022-12-11T11:02:59;13.60;;;8.50;;
18102;SDS011;9178;51.120;6.192;2022-12-11T11:05:27;16.00;;;8.63;;
18102;SDS011;9178;51.120;6.192;2022-12-11T11:10:49;15.83;;;8.87;;
18102;SDS011;9178;51.120;6.192;2022-12-11T11:13:19;14.23;;;8.37;;
18102;SDS011;9178;51.120;6.192;2022-12-11T11:15:47;11.87;;;8.23;;
18102;SDS011;9178;51.120;6.192;2022-12-11T11:18:18;13.53;;;8.47;;
18102;SDS011;9178;51.120;6.192;2022-12-11T11:20:51;13.63;;;8.17;;
18102;SDS011;9178;51.120;6.192;2022-12-11T11:23:18;14.30;;;8.77;;
18102;SDS011;9178;51.120;6.192;2022-12-11T11:25:50;14.90;;;8.27;;
18102;SDS011;9178;51.120;6.192;2022-12-11T11:28:19;14.13;;;8.13;;
18102;SDS011;9178;51.120;6.192;2022-12-11T11:31:00;13.10;;;7.87;;
18102;SDS011;9178;51.120;6.192;2022-12-11T11:33:32;11.53;;;6.90;;
18102;SDS011;9178;51.120;6.192;2022-12-11T11:36:02;11.83;;;7.10;;
18102;SDS011;9178;51.120;6.192;2022-12-11T11:38:30;13.13;;;7.50;;
18102;SDS011;9178;51.120;6.192;2022-12-11T11:41:03;13.77;;;7.30;;
18102;SDS011;9178;51.120;6.192;2022-12-11T11:43:37;11.97;;;6.87;;
18102;SDS011;9178;51.120;6.192;2022-12-11T11:46:10;13.10;;;7.57;;
18102;SDS011;9178;51.120;6.192;2022-12-11T11:48:45;12.80;;;6.77;;
18102;SDS011;9178;51.120;6.192;2022-12-11T11:51:20;15.23;;;7.70;;
18102;SDS011;9178;51.120;6.192;2022-12-11T11:53:53;13.83;;;8.10;;
18102;SDS011;9178;51.120;6.192;2022-12-11T11:56:24;13.17;;;7.63;;
18102;SDS011;9178;51.120;6.192;2022-12-11T11:58:54;13.27;;;7.53;;
18102;SDS011;9178;51.120;6.192;2022-12-11T12:01:31;14.10;;;7.60;;
18102;SDS011;9178;51.120;6.192;2022-12-11T12:04:00;13.13;;;7.47;;
18102;SDS011;9178;51.120;6.192;2022-12-11T12:06:30;12.20;;;7.23;;
18102;SDS011;9178;51.120;6.192;2022-12-11T12:09:06;13.37;;;7.53;;
18102;SDS011;9178;51.120;6.192;2022-12-11T12:11:44;11.60;;;7.47;;
18102;SDS011;9178;51.120;6.192;2022-12-11T12:14:17;12.70;;;7.40;;
18102;SDS011;9178;51.120;6.192;2022-12-11T12:16:50;11.77;;;7.40;;
18102;SDS011;9178;51.120;6.192;2022-12-11T12:19:31;13.53;;;7.70;;
18102;SDS011;9178;51.120;6.192;2022-12-11T12:22:20;12.57;;;7.50;;
18102;SDS011;9178;51.120;6.192;2022-12-11T12:24:59;13.37;;;7.07;;
18102;SDS011;9178;51.120;6.192;2022-12-11T12:27:33;13.63;;;7.30;;
18102;SDS011;9178;51.120;6.192;2022-12-11T12:30:07;12.33;;;7.37;;
18102;SDS011;9178;51.120;6.192;2022-12-11T12:32:39;11.87;;;7.10;;
18102;SDS011;9178;51.120;6.192;2022-12-11T12:35:19;11.87;;;7.17;;
18102;SDS011;9178;51.120;6.192;2022-12-11T12:37:55;13.43;;;6.87;;
18102;SDS011;9178;51.120;6.192;2022-12-11T12:40:28;12.43;;;7.53;;
18102;SDS011;9178;51.120;6.192;2022-12-11T12:43:00;23.37;;;14.30;;
18102;SDS011;9178;51.120;6.192;2022-12-11T12:45:43;13.60;;;7.53;;
18102;SDS011;9178;51.120;6.192;2022-12-11T12:48:14;17.77;;;9.57;;
18102;SDS011;9178;51.120;6.192;2022-12-11T12:50:43;12.97;;;8.23;;
18102;SDS011;9178;51.120;6.192;2022-12-11T12:53:15;14.00;;;7.37;;
18102;SDS011;9178;51.120;6.192;2022-12-11T12:55:44;10.67;;;6.70;;
18102;SDS011;9178;51.120;6.192;2022-12-11T12:58:23;11.70;;;7.60;;
18102;SDS011;9178;51.120;6.192;2022-12-11T13:00:51;11.00;;;7.17;;
18102;SDS011;9178;51.120;6.192;2022-12-11T13:03:20;12.27;;;7.37;;
18102;SDS011;9178;51.120;6.192;2022-12-11T13:05:56;13.23;;;7.70;;
18102;SDS011;9178;51.120;6.192;2022-12-11T13:08:25;11.53;;;7.13;;
18102;SDS011;9178;51.120;6.192;2022-12-11T13:11:00;10.47;;;7.20;;
18102;SDS011;9178;51.120;6.192;2022-12-11T13:13:31;12.60;;;6.87;;
18102;SDS011;9178;51.120;6.192;2022-12-11T13:16:07;11.50;;;7.07;;
18102;SDS011;9178;51.120;6.192;2022-12-11T13:18:50;11.23;;;6.50;;
18102;SDS011;9178;51.120;6.192;2022-12-11T13:21:26;10.80;;;6.63;;
18102;SDS011;9178;51.120;6.192;2022-12-11T13:24:09;11.60;;;6.90;;
18102;SDS011;9178;51.120;6.192;2022-12-11T13:36:14;11.87;;;6.90;;
18102;SDS011;9178;51.120;6.192;2022-12-11T13:38:53;12.00;;;6.93;;
18102;SDS011;9178;51.120;6.192;2022-12-11T13:41:21;12.40;;;7.97;;
18102;SDS011;9178;51.120;6.192;2022-12-11T13:43:49;13.73;;;8.40;;
18102;SDS011;9178;51.120;6.192;2022-12-11T13:46:19;11.40;;;6.97;;
18102;SDS011;9178;51.120;6.192;2022-12-11T13:48:49;11.90;;;7.37;;
18102;SDS011;9178;51.120;6.192;2022-12-11T13:51:21;10.47;;;6.63;;
18102;SDS011;9178;51.120;6.192;2022-12-11T13:54:00;10.37;;;6.63;;
18102;SDS011;9178;51.120;6.192;2022-12-11T13:56:29;11.63;;;7.03;;
18102;SDS011;9178;51.120;6.192;2022-12-11T13:58:56;12.77;;;7.27;;
18102;SDS011;9178;51.120;6.192;2022-12-11T14:01:23;11.47;;;7.70;;
18102;SDS011;9178;51.120;6.192;2022-12-11T14:03:53;13.90;;;7.70;;
18102;SDS011;9178;51.120;6.192;2022-12-11T14:06:23;12.13;;;7.63;;
18102;SDS011;9178;51.120;6.192;2022-12-11T14:08:53;15.17;;;8.57;;
18102;SDS011;9178;51.120;6.192;2022-12-11T14:11:25;12.40;;;7.50;;
18102;SDS011;9178;51.120;6.192;2022-12-11T14:13:54;11.53;;;7.83;;
18102;SDS011;9178;51.120;6.192;2022-12-11T14:16:23;12.57;;;8.07;;
18102;SDS011;9178;51.120;6.192;2022-12-11T14:18:52;11.63;;;7.63;;
18102;SDS011;9178;51.120;6.192;2022-12-11T14:21:21;14.23;;;8.80;;
18102;SDS011;9178;51.120;6.192;2022-12-11T14:23:50;12.57;;;7.40;;
18102;SDS011;9178;51.120;6.192;2022-12-11T14:26:19;14.13;;;8.40;;
18102;SDS011;9178;51.120;6.192;2022-12-11T14:28:48;12.60;;;8.30;;
18102;SDS011;9178;51.120;6.192;2022-12-11T14:31:15;12.17;;;8.07;;
18102;SDS011;9178;51.120;6.192;2022-12-11T14:33:50;14.20;;;8.90;;
18102;SDS011;9178;51.120;6.192;2022-12-11T14:36:19;12.53;;;7.90;;
18102;SDS011;9178;51.120;6.192;2022-12-11T14:38:50;13.77;;;8.60;;
18102;SDS011;9178;51.120;6.192;2022-12-11T14:41:22;11.93;;;7.70;;
18102;SDS011;9178;51.120;6.192;2022-12-11T14:43:55;12.63;;;8.17;;
18102;SDS011;9178;51.120;6.192;2022-12-11T14:46:27;12.07;;;8.50;;
18102;SDS011;9178;51.120;6.192;2022-12-11T14:49:02;10.43;;;7.70;;
18102;SDS011;9178;51.120;6.192;2022-12-11T14:51:33;11.27;;;7.93;;
18102;SDS011;9178;51.120;6.192;2022-12-11T14:54:05;14.00;;;8.17;;
18102;SDS011;9178;51.120;6.192;2022-12-11T14:56:40;14.80;;;8.03;;
18102;SDS011;9178;51.120;6.192;2022-12-11T14:59:13;12.80;;;7.40;;
18102;SDS011;9178;51.120;6.192;2022-12-11T15:01:43;14.17;;;8.00;;
18102;SDS011;9178;51.120;6.192;2022-12-11T15:04:21;13.30;;;8.50;;
18102;SDS011;9178;51.120;6.192;2022-12-11T15:06:51;15.83;;;8.77;;
18102;SDS011;9178;51.120;6.192;2022-12-11T15:09:24;15.10;;;9.27;;
18102;SDS011;9178;51.120;6.192;2022-12-11T15:11:54;12.47;;;8.23;;
18102;SDS011;9178;51.120;6.192;2022-12-11T15:14:23;14.60;;;9.13;;